createdAt,value
2023-03-27T00:02:26.829Z,93650.00
2023-03-27T00:04:55.763Z,93647.78
2023-03-27T00:07:23.604Z,93646.41
2023-03-27T00:09:51.305Z,93648.50
2023-03-27T00:12:20.308Z,93652.00
2023-03-27T00:14:48.180Z,93650.97
2023-03-27T00:17:15.873Z,93653.53
2023-03-27T00:19:43.874Z,93648.66
2023-03-27T00:22:11.755Z,93647.47
2023-03-27T00:24:39.381Z,93651.56
2023-03-27T00:27:07.154Z,93642.66
2023-03-27T00:29:36.123Z,93649.34
2023-03-27T00:32:03.756Z,93650.06
2023-03-27T00:34:31.490Z,93654.63
2023-03-27T00:36:59.554Z,93654.88
2023-03-27T00:39:27.857Z,93658.38
2023-03-27T00:41:56.502Z,93657.56
2023-03-27T00:44:26.024Z,93658.03
2023-03-27T00:46:57.054Z,93659.69
2023-03-27T00:49:25.580Z,93665.88
2023-03-27T00:51:53.818Z,93665.41
2023-03-27T00:54:26.415Z,93664.09
2023-03-27T00:56:55.492Z,93677.09
2023-03-27T00:59:24.936Z,93670.66
2023-03-27T01:01:53.537Z,93676.38
2023-03-27T01:04:23.727Z,93683.75
2023-03-27T01:06:53.742Z,93683.88
2023-03-27T01:09:21.522Z,93674.22
2023-03-27T01:12:00.861Z,93674.22
2023-03-27T01:14:32.422Z,93672.13
2023-03-27T01:17:12.189Z,93670.03
2023-03-27T01:20:34.955Z,93674.34
2023-03-27T01:23:35.717Z,93673.06
2023-03-27T01:26:48.612Z,93664.50
2023-03-27T01:29:19.352Z,93660.50
2023-03-27T01:32:00.304Z,93656.75
2023-03-27T01:35:02.155Z,93675.63
2023-03-27T01:37:51.652Z,93668.00
2023-03-27T01:40:21.263Z,93664.84
2023-03-27T01:42:51.655Z,93664.75
2023-03-27T01:45:21.737Z,93669.41
2023-03-27T01:47:54.103Z,93683.50
2023-03-27T01:50:24.818Z,93681.84
2023-03-27T01:52:55.672Z,93679.16
2023-03-27T01:55:27.513Z,93697.91
2023-03-27T01:58:00.641Z,93691.72
2023-03-27T02:00:51.690Z,93685.16
2023-03-27T02:03:20.587Z,93693.47
2023-03-27T02:05:50.537Z,93687.28
2023-03-27T02:08:20.870Z,93690.78
2023-03-27T02:10:51.822Z,93697.81
2023-03-27T02:13:23.928Z,93698.28
2023-03-27T02:15:51.441Z,93690.91
2023-03-27T02:18:23.945Z,93690.56
2023-03-27T02:20:51.606Z,93697.00
2023-03-27T02:23:19.338Z,93693.97
2023-03-27T02:25:47.610Z,93693.72
2023-03-27T02:28:34.660Z,93691.28
2023-03-27T02:31:31.909Z,93698.31
2023-03-27T02:34:21.970Z,93702.03
2023-03-27T02:36:55.914Z,93697.25
2023-03-27T02:39:27.919Z,93703.44
2023-03-27T02:42:00.095Z,93705.91
2023-03-27T02:44:32.724Z,93704.63
2023-03-27T02:47:04.582Z,93712.34
2023-03-27T02:49:36.038Z,93715.84
2023-03-27T02:52:08.431Z,93711.53
2023-03-27T02:54:39.525Z,93718.78
2023-03-27T02:57:10.540Z,93718.31
2023-03-27T02:59:45.014Z,93724.53
2023-03-27T03:02:17.867Z,93722.06
2023-03-27T03:04:48.755Z,93722.41
2023-03-27T03:07:18.582Z,93721.09
2023-03-27T03:09:46.218Z,93733.19
2023-03-27T03:12:13.843Z,93738.91
2023-03-27T03:14:44.983Z,93740.56
2023-03-27T03:17:13.066Z,93740.56
2023-03-27T03:19:40.817Z,93738.44
2023-03-27T03:22:08.939Z,93736.78
2023-03-27T03:24:37.426Z,93738.91
2023-03-27T03:27:05.836Z,93747.91
2023-03-27T03:29:36.969Z,93760.31
2023-03-27T03:32:06.713Z,93750.03
2023-03-27T03:34:34.441Z,93754.59
2023-03-27T03:37:02.356Z,93760.78
2023-03-27T03:39:31.058Z,93754.13
2023-03-27T03:41:58.724Z,93769.44
2023-03-27T03:44:26.422Z,93772.13
2023-03-27T03:46:54.060Z,93773.56
2023-03-27T03:49:23.139Z,93765.72
2023-03-27T03:52:03.895Z,93775.44
2023-03-27T03:54:32.875Z,93785.13
2023-03-27T03:57:00.565Z,93781.88
2023-03-27T03:59:28.587Z,93782.44
2023-03-27T04:01:56.249Z,93794.16
2023-03-27T04:04:25.495Z,93796.38
2023-03-27T04:06:58.142Z,93795.91
2023-03-27T04:09:26.152Z,93807.03
2023-03-27T04:11:53.795Z,93805.75
2023-03-27T04:14:21.503Z,93821.91
2023-03-27T04:16:49.123Z,93832.22
2023-03-27T04:19:18.252Z,93823.66
2023-03-27T04:21:48.260Z,93827.03
2023-03-27T04:24:18.271Z,93836.63
2023-03-27T04:26:46.630Z,93843.88
2023-03-27T04:29:14.296Z,93852.97
2023-03-27T04:31:46.583Z,93855.44
2023-03-27T04:34:14.419Z,93855.09
2023-03-27T04:36:42.520Z,93888.91
2023-03-27T04:39:11.582Z,93876.03
2023-03-27T04:41:39.231Z,93893.22
2023-03-27T04:44:07.265Z,93888.28
2023-03-27T04:46:34.968Z,93901.38
2023-03-27T04:49:02.699Z,93910.75
2023-03-27T04:51:32.274Z,93916.59
2023-03-27T04:53:59.915Z,93919.59
2023-03-27T04:56:30.794Z,93937.84
2023-03-27T04:58:58.442Z,93946.94
2023-03-27T05:01:26.248Z,93949.50
2023-03-27T05:03:54.719Z,93955.47
2023-03-27T05:06:22.677Z,93974.16
2023-03-27T05:08:50.778Z,93977.38
2023-03-27T05:11:18.655Z,93977.16
2023-03-27T05:13:47.695Z,93995.31
2023-03-27T05:16:17.541Z,93992.47
2023-03-27T05:18:46.132Z,94002.28
2023-03-27T05:21:14.071Z,94019.00
2023-03-27T05:23:42.232Z,94032.22
2023-03-27T05:26:09.862Z,94045.19
2023-03-27T05:28:39.646Z,94044.34
2023-03-27T05:31:10.646Z,94056.59
2023-03-27T05:33:39.918Z,94068.97
2023-03-27T05:36:08.254Z,94073.41
2023-03-27T05:38:35.849Z,94074.06
2023-03-27T05:41:04.051Z,94089.53
2023-03-27T05:43:32.235Z,94085.91
2023-03-27T05:45:59.895Z,94103.59
2023-03-27T05:48:28.862Z,94110.22
2023-03-27T05:50:56.931Z,94125.72
2023-03-27T05:53:28.676Z,94132.41
2023-03-27T05:56:02.765Z,94127.69
2023-03-27T05:58:31.591Z,94142.56
2023-03-27T06:00:59.558Z,94148.19
2023-03-27T06:03:30.127Z,94154.16
2023-03-27T06:06:00.186Z,94161.00
2023-03-27T06:08:28.702Z,94184.53
2023-03-27T06:10:57.447Z,94176.34
2023-03-27T06:13:25.507Z,94182.13
2023-03-27T06:15:55.096Z,94197.03
2023-03-27T06:18:23.014Z,94194.75
2023-03-27T06:20:51.836Z,94212.91
2023-03-27T06:23:20.853Z,94219.53
2023-03-27T06:25:48.452Z,94225.09
2023-03-27T06:28:16.046Z,94239.13
2023-03-27T06:30:43.645Z,94241.63
2023-03-27T06:33:12.059Z,94248.25
2023-03-27T06:35:40.488Z,94251.94
2023-03-27T06:38:08.176Z,94262.47
2023-03-27T06:40:37.245Z,94259.59
2023-03-27T06:43:06.835Z,94272.19
2023-03-27T06:45:35.954Z,94280.84
2023-03-27T06:48:16.032Z,94284.97
2023-03-27T06:50:48.968Z,94296.34
2023-03-27T06:55:50.934Z,94319.84
2023-03-27T06:58:19.560Z,94325.84
2023-03-27T07:00:48.835Z,94339.03
2023-03-27T07:03:17.905Z,94338.19
2023-03-27T07:05:46.036Z,94346.00
2023-03-27T07:08:23.674Z,94361.66
2023-03-27T07:13:25.161Z,94365.78
2023-03-27T07:15:52.796Z,94370.69
2023-03-27T07:18:21.982Z,94380.22
2023-03-27T07:20:50.355Z,94385.34
2023-03-27T07:23:18.115Z,94387.63
2023-03-27T07:25:45.879Z,94402.44
2023-03-27T07:28:16.728Z,94407.63
2023-03-27T07:30:44.488Z,94407.41
2023-03-27T07:33:12.478Z,94404.53
2023-03-27T07:35:42.761Z,94412.34
2023-03-27T07:38:10.725Z,94420.41
2023-03-27T07:40:40.325Z,94426.19
2023-03-27T07:43:09.117Z,94440.00
2023-03-27T07:45:38.298Z,94449.13
2023-03-27T07:48:06.986Z,94450.56
2023-03-27T07:50:34.935Z,94460.50
2023-03-27T07:53:02.733Z,94470.84
2023-03-27T07:55:30.556Z,94467.75
2023-03-27T07:58:02.302Z,94479.72
2023-03-27T08:00:35.184Z,94480.72
2023-03-27T08:03:07.851Z,94496.59
2023-03-27T08:05:35.705Z,94500.78
2023-03-27T08:08:03.340Z,94504.88
2023-03-27T08:10:30.979Z,94506.53
2023-03-27T08:12:58.580Z,94524.28
2023-03-27T08:15:26.272Z,94536.81
2023-03-27T08:17:56.699Z,94548.19
2023-03-27T08:20:25.836Z,94549.56
2023-03-27T08:22:53.683Z,94558.94
2023-03-27T08:25:22.482Z,94560.56
2023-03-27T08:27:50.654Z,94567.13
2023-03-27T08:30:19.552Z,94568.00
2023-03-27T08:32:47.219Z,94584.47
2023-03-27T08:35:14.822Z,94584.88
2023-03-27T08:37:43.959Z,94587.94
2023-03-27T08:40:18.952Z,94601.75
2023-03-27T08:42:47.769Z,94605.06
2023-03-27T08:45:20.749Z,94609.19
2023-03-27T08:47:52.971Z,94606.72
2023-03-27T08:50:29.133Z,94619.44
2023-03-27T08:52:59.347Z,94630.66
2023-03-27T08:55:41.357Z,94620.75
2023-03-27T08:58:18.039Z,94632.31
2023-03-27T09:00:46.218Z,94648.84
2023-03-27T09:03:17.597Z,94647.97
2023-03-27T09:05:48.832Z,94648.41
2023-03-27T09:08:25.777Z,94655.66
2023-03-27T09:10:57.206Z,94662.28
2023-03-27T09:13:27.568Z,94665.16
2023-03-27T09:15:58.669Z,94666.69
2023-03-27T09:18:31.047Z,94672.91
2023-03-27T09:20:58.790Z,94676.81
2023-03-27T09:23:30.606Z,94690.66
2023-03-27T09:26:01.733Z,94684.91
2023-03-27T09:28:32.251Z,94697.81
2023-03-27T09:31:01.694Z,94699.50
2023-03-27T09:33:29.392Z,94698.56
2023-03-27T09:35:57.854Z,94699.66
2023-03-27T09:38:31.821Z,94710.16
2023-03-27T09:41:02.982Z,94717.00
2023-03-27T09:43:40.434Z,94715.66
2023-03-27T09:46:09.956Z,94724.72
2023-03-27T09:48:39.732Z,94734.00
2023-03-27T09:51:38.026Z,94733.75
2023-03-27T09:54:07.659Z,94737.56
2023-03-27T09:56:37.763Z,94738.00
2023-03-27T09:59:12.040Z,94741.69
2023-03-27T10:01:47.846Z,94741.34
2023-03-27T10:04:17.742Z,94748.59
2023-03-27T10:06:47.427Z,94749.47
2023-03-27T10:09:24.084Z,94764.72
2023-03-27T10:11:52.683Z,94770.44
2023-03-27T10:14:22.021Z,94774.94
2023-03-27T10:16:49.911Z,94772.59
2023-03-27T10:19:23.244Z,94782.19
2023-03-27T10:21:51.122Z,94780.97
2023-03-27T10:24:29.112Z,94793.31
2023-03-27T10:26:56.962Z,94790.47
2023-03-27T10:29:26.886Z,94789.31
2023-03-27T10:31:57.593Z,94799.88
2023-03-27T10:34:32.478Z,94809.69
2023-03-27T10:37:01.510Z,94812.84
2023-03-27T10:39:34.551Z,94807.22
2023-03-27T10:42:04.806Z,94813.84
2023-03-27T10:44:32.420Z,94819.44
2023-03-27T10:47:00.194Z,94821.78
2023-03-27T10:49:33.440Z,94819.97
2023-03-27T10:52:09.927Z,94833.91
2023-03-27T10:54:43.789Z,94837.56
2023-03-27T10:57:14.611Z,94843.34
2023-03-27T10:59:46.188Z,94841.78
2023-03-27T11:02:17.451Z,94847.16
2023-03-27T11:04:50.071Z,94853.38
2023-03-27T11:07:23.528Z,94854.09
2023-03-27T11:10:00.245Z,94853.22
2023-03-27T11:12:30.097Z,94853.06
2023-03-27T11:15:02.052Z,94856.63
2023-03-27T11:17:33.605Z,94857.63
2023-03-27T11:20:07.242Z,94868.03
2023-03-27T11:22:38.578Z,94860.25
2023-03-27T11:25:15.622Z,94860.09
2023-03-27T11:27:48.051Z,94864.25
2023-03-27T11:30:29.184Z,94855.97
2023-03-27T11:33:05.994Z,94871.91
2023-03-27T11:35:37.696Z,94859.06
2023-03-27T11:38:08.981Z,94860.09
2023-03-27T11:40:42.144Z,94872.72
2023-03-27T11:43:10.827Z,94864.16
2023-03-27T11:45:43.132Z,94862.75
2023-03-27T11:48:23.161Z,94868.25
2023-03-27T11:50:54.160Z,94873.28
2023-03-27T11:53:58.009Z,94877.31
2023-03-27T11:56:49.139Z,94880.41
2023-03-27T11:59:37.205Z,94870.72
2023-03-27T12:02:17.625Z,94866.31
2023-03-27T12:04:50.404Z,94872.44
2023-03-27T12:07:36.071Z,94869.63
2023-03-27T12:10:16.427Z,94869.03
2023-03-27T12:12:53.113Z,94879.25
2023-03-27T12:15:32.978Z,94877.06
2023-03-27T12:18:05.801Z,94885.53
2023-03-27T12:20:52.594Z,94883.84
2023-03-27T12:23:38.903Z,94883.31
2023-03-27T12:26:17.724Z,94886.78
2023-03-27T12:28:56.625Z,94889.50
2023-03-27T12:31:35.307Z,94892.22
2023-03-27T12:34:03.704Z,94899.28
2023-03-27T12:36:33.809Z,94895.97
2023-03-27T12:39:02.030Z,94898.66
2023-03-27T12:41:31.343Z,94902.34
2023-03-27T12:44:01.393Z,94892.13
2023-03-27T12:46:35.284Z,94899.69
2023-03-27T12:49:34.247Z,94893.53
2023-03-27T12:52:08.554Z,94893.56
2023-03-27T12:54:38.592Z,94894.25
2023-03-27T12:57:08.822Z,94899.22
2023-03-27T12:59:40.142Z,94901.72
2023-03-27T13:02:42.747Z,94910.00
2023-03-27T13:05:27.593Z,94913.25
2023-03-27T13:08:07.135Z,94909.13
2023-03-27T13:10:46.340Z,94916.31
2023-03-27T13:13:29.618Z,94914.63
2023-03-27T13:16:19.143Z,94922.91
2023-03-27T13:19:05.268Z,94919.50
2023-03-27T13:21:39.321Z,94935.38
2023-03-27T13:24:19.833Z,94934.84
2023-03-27T13:26:59.693Z,94935.19
2023-03-27T13:29:31.754Z,94927.47
2023-03-27T13:32:03.281Z,94949.84
2023-03-27T13:34:37.186Z,94956.44
2023-03-27T13:37:42.450Z,94959.16
2023-03-27T13:40:24.528Z,94963.31
2023-03-27T13:42:57.754Z,94959.94
2023-03-27T13:45:38.377Z,94963.69
2023-03-27T13:48:40.441Z,94968.28
2023-03-27T13:51:18.824Z,94975.91
2023-03-27T13:54:00.243Z,94963.69
2023-03-27T13:56:45.397Z,94967.00
2023-03-27T13:59:30.676Z,94973.66
2023-03-27T14:02:05.129Z,94968.69
2023-03-27T14:04:57.384Z,94969.94
2023-03-27T14:08:10.069Z,94974.88
2023-03-27T14:10:56.936Z,94967.38
2023-03-27T14:13:43.156Z,94965.47
2023-03-27T14:16:41.840Z,94974.75
2023-03-27T14:19:57.102Z,94969.00
2023-03-27T14:22:27.978Z,94979.91
2023-03-27T14:24:57.660Z,94980.16
2023-03-27T14:27:26.357Z,94979.88
2023-03-27T14:30:09.191Z,94988.78
2023-03-27T14:32:36.925Z,94983.53
2023-03-27T14:35:06.894Z,94986.22
2023-03-27T14:37:36.955Z,95000.63
2023-03-27T14:40:20.500Z,95007.66
2023-03-27T14:42:51.167Z,95018.44
2023-03-27T14:45:22.074Z,95013.41
2023-03-27T14:47:53.385Z,95023.97
2023-03-27T14:50:23.109Z,95042.09
2023-03-27T14:52:53.168Z,95042.78
2023-03-27T14:55:22.979Z,95055.00
2023-03-27T14:57:51.396Z,95058.22
2023-03-27T15:00:21.590Z,95068.50
2023-03-27T15:02:52.154Z,95077.34
2023-03-27T15:05:23.100Z,95085.66
2023-03-27T15:07:51.974Z,95079.63
2023-03-27T15:10:23.771Z,95070.69
2023-03-27T15:12:51.894Z,95073.25
2023-03-27T15:15:24.848Z,95064.13
2023-03-27T15:17:55.081Z,95064.06
2023-03-27T15:20:27.654Z,95056.94
2023-03-27T15:23:00.871Z,95063.81
2023-03-27T15:25:34.651Z,95057.25
2023-03-27T15:28:06.239Z,95063.34
2023-03-27T15:30:35.216Z,95060.50
2023-03-27T15:33:04.274Z,95053.91
2023-03-27T15:35:35.093Z,95057.81
2023-03-27T15:38:03.498Z,95053.88
2023-03-27T15:40:40.323Z,95051.03
2023-03-27T15:43:22.089Z,95051.72
2023-03-27T15:46:02.095Z,95050.25
2023-03-27T15:48:35.159Z,95056.25
2023-03-27T15:51:06.252Z,95070.13
2023-03-27T15:53:35.682Z,95068.13
2023-03-27T15:56:04.783Z,95069.94
2023-03-27T15:58:41.011Z,95067.91
2023-03-27T16:01:18.413Z,95069.72
2023-03-27T16:03:48.487Z,95065.41
2023-03-27T16:06:26.677Z,95064.78
2023-03-27T16:08:54.973Z,95071.22
2023-03-27T16:11:50.039Z,95071.22
2023-03-27T16:14:28.994Z,95078.47
2023-03-27T16:17:11.243Z,95081.78
2023-03-27T16:19:42.601Z,95079.06
2023-03-27T16:22:13.177Z,95081.16
2023-03-27T16:24:40.828Z,95079.69
2023-03-27T16:27:08.405Z,95089.25
2023-03-27T16:29:36.191Z,95080.72
2023-03-27T16:32:03.880Z,95093.50
2023-03-27T16:34:31.471Z,95109.03
2023-03-27T16:36:59.762Z,95098.88
2023-03-27T16:39:28.748Z,95116.03
2023-03-27T16:41:56.360Z,95107.78
2023-03-27T16:44:23.968Z,95113.31
2023-03-27T16:46:51.642Z,95123.47
2023-03-27T16:49:19.218Z,95116.56
2023-03-27T16:51:46.869Z,95127.41
2023-03-27T16:54:14.477Z,95130.72
2023-03-27T16:56:43.455Z,95133.47
2023-03-27T16:59:11.366Z,95135.78
2023-03-27T17:01:39.100Z,95132.47
2023-03-27T17:04:06.970Z,95138.22
2023-03-27T17:06:35.496Z,95139.22
2023-03-27T17:09:03.140Z,95148.16
2023-03-27T17:11:30.682Z,95147.91
2023-03-27T17:13:59.640Z,95149.13
2023-03-27T17:16:27.386Z,95148.50
2023-03-27T17:18:55.806Z,95152.19
2023-03-27T17:21:23.919Z,95158.91
2023-03-27T17:23:52.757Z,95166.00
2023-03-27T17:26:24.700Z,95160.25
2023-03-27T17:28:52.341Z,95170.44
2023-03-27T17:31:21.949Z,95176.44
2023-03-27T17:33:49.824Z,95177.47
2023-03-27T17:36:26.846Z,95184.31
2023-03-27T17:38:57.544Z,95175.69
2023-03-27T17:41:27.071Z,95176.25
2023-03-27T17:43:54.670Z,95180.88
2023-03-27T17:46:23.633Z,95185.75
2023-03-27T17:48:51.552Z,95183.63
2023-03-27T17:51:19.191Z,95196.81
2023-03-27T17:53:46.812Z,95187.50
2023-03-27T17:56:14.356Z,95193.94
2023-03-27T17:58:42.015Z,95198.25
2023-03-27T18:01:14.188Z,95199.25
2023-03-27T18:03:43.126Z,95208.13
2023-03-27T18:06:10.879Z,95207.50
2023-03-27T18:08:38.585Z,95207.50
2023-03-27T18:11:09.909Z,95206.38
2023-03-27T18:13:37.879Z,95209.00
2023-03-27T18:16:08.560Z,95218.47
2023-03-27T18:18:36.466Z,95224.47
2023-03-27T18:21:06.210Z,95219.28
2023-03-27T18:23:34.950Z,95225.09
2023-03-27T18:26:05.399Z,95240.31
2023-03-27T18:28:33.043Z,95236.25
2023-03-27T18:31:02.063Z,95238.75
2023-03-27T18:33:29.848Z,95232.53
2023-03-27T18:35:58.518Z,95244.78
2023-03-27T18:38:28.741Z,95243.47
2023-03-27T18:40:57.010Z,95246.06
2023-03-27T18:43:24.962Z,95255.81
2023-03-27T18:45:56.976Z,95257.50
2023-03-27T18:48:25.360Z,95265.16
2023-03-27T18:50:56.583Z,95269.88
2023-03-27T18:53:24.613Z,95274.88
2023-03-27T18:55:54.116Z,95275.72
2023-03-27T18:58:24.199Z,95272.94
2023-03-27T19:00:52.025Z,95272.38
2023-03-27T19:03:24.174Z,95284.22
2023-03-27T19:05:52.113Z,95281.53
2023-03-27T19:08:20.616Z,95280.44
2023-03-27T19:10:48.340Z,95286.97
2023-03-27T19:13:17.306Z,95285.47
2023-03-27T19:15:45.192Z,95279.72
2023-03-27T19:18:13.725Z,95284.38
2023-03-27T19:20:41.462Z,95277.13
2023-03-27T19:23:09.405Z,95285.63
2023-03-27T19:25:37.056Z,95274.53
2023-03-27T19:28:06.211Z,95284.63
2023-03-27T19:30:35.429Z,95275.94
2023-03-27T19:33:03.353Z,95288.69
2023-03-27T19:35:31.139Z,95291.38
2023-03-27T19:37:58.874Z,95290.38
2023-03-27T19:40:26.603Z,95286.00
2023-03-27T19:42:54.311Z,95288.69
2023-03-27T19:45:22.007Z,95286.94
2023-03-27T19:47:51.421Z,95289.81
2023-03-27T19:50:19.298Z,95298.50
2023-03-27T19:52:57.346Z,95299.88
2023-03-27T19:55:29.117Z,95297.56
2023-03-27T19:57:56.891Z,95300.31
2023-03-27T20:00:24.647Z,95303.09
2023-03-27T20:02:53.816Z,95307.97
2023-03-27T20:05:22.159Z,95311.09
2023-03-27T20:07:49.860Z,95315.16
2023-03-27T20:10:17.505Z,95317.16
2023-03-27T20:12:45.281Z,95314.28
2023-03-27T20:15:13.018Z,95311.31
2023-03-27T20:17:41.144Z,95316.41
2023-03-27T20:20:11.791Z,95314.13
2023-03-27T20:22:54.332Z,95303.91
2023-03-27T20:25:24.562Z,95300.38
2023-03-27T20:27:52.191Z,95302.50
2023-03-27T20:30:19.842Z,95295.84
2023-03-27T20:32:47.518Z,95290.66
2023-03-27T20:35:24.155Z,95294.88
2023-03-27T20:37:57.637Z,95297.38
2023-03-27T20:40:25.794Z,95296.56
2023-03-27T20:43:03.145Z,95301.91
2023-03-27T20:45:43.860Z,95293.22
2023-03-27T20:48:15.003Z,95297.09
2023-03-27T20:50:49.031Z,95305.84
2023-03-27T20:53:18.760Z,95296.50
2023-03-27T20:55:59.051Z,95300.84
2023-03-27T20:58:32.875Z,95303.88
2023-03-27T21:01:05.316Z,95307.56
2023-03-27T21:03:34.896Z,95307.91
2023-03-27T21:06:06.656Z,95306.25
2023-03-27T21:08:34.747Z,95309.66
2023-03-27T21:11:03.966Z,95317.22
2023-03-27T21:13:32.176Z,95314.06
2023-03-27T21:16:00.071Z,95315.88
2023-03-27T21:18:28.023Z,95321.56
2023-03-27T21:20:55.860Z,95317.59
2023-03-27T21:23:24.982Z,95318.59
2023-03-27T21:25:53.249Z,95319.63
2023-03-27T21:28:20.996Z,95324.50
2023-03-27T21:30:49.198Z,95316.50
2023-03-27T21:33:17.187Z,95327.22
2023-03-27T21:35:46.966Z,95325.88
2023-03-27T21:38:15.582Z,95329.28
2023-03-27T21:40:46.588Z,95322.41
2023-03-27T21:43:14.381Z,95332.13
2023-03-27T21:45:42.021Z,95333.13
2023-03-27T21:48:10.803Z,95340.97
2023-03-27T21:50:38.751Z,95339.31
2023-03-27T21:53:06.387Z,95342.66
2023-03-27T21:55:34.404Z,95341.47
2023-03-27T21:58:03.372Z,95344.16
2023-03-27T22:00:31.138Z,95344.81
2023-03-27T22:02:58.841Z,95343.63
2023-03-27T22:05:26.552Z,95347.31
2023-03-27T22:07:54.184Z,95346.13
2023-03-27T22:10:21.811Z,95359.69
2023-03-27T22:12:49.434Z,95352.97
2023-03-27T22:15:18.405Z,95366.03
2023-03-27T22:17:46.397Z,95365.03
2023-03-27T22:20:14.101Z,95361.50
2023-03-27T22:22:41.797Z,95360.50
2023-03-27T22:25:10.030Z,95362.19
2023-03-27T22:27:37.895Z,95357.47
2023-03-27T22:30:06.718Z,95369.19
2023-03-27T22:32:36.041Z,95370.69
2023-03-27T22:35:03.680Z,95377.72
2023-03-27T22:37:31.309Z,95379.59
2023-03-27T22:39:58.893Z,95384.59
2023-03-27T22:42:30.346Z,95389.66
2023-03-27T22:44:57.965Z,95396.84
2023-03-27T22:47:25.825Z,95390.78
2023-03-27T22:49:54.803Z,95392.31
2023-03-27T22:52:22.399Z,95394.50
2023-03-27T22:54:49.994Z,95401.50
2023-03-27T22:57:17.704Z,95400.69
2023-03-27T22:59:45.392Z,95404.72
2023-03-27T23:02:13.081Z,95406.38
2023-03-27T23:04:40.784Z,95399.19
2023-03-27T23:07:09.988Z,95407.88
2023-03-27T23:09:37.881Z,95406.88
2023-03-27T23:12:06.195Z,95412.38
2023-03-27T23:14:34.066Z,95409.53
2023-03-27T23:17:01.726Z,95414.25
2023-03-27T23:19:29.313Z,95418.94
2023-03-27T23:21:56.870Z,95414.25
2023-03-27T23:24:25.831Z,95410.56
2023-03-27T23:26:53.500Z,95413.75
2023-03-27T23:29:21.338Z,95411.59
2023-03-27T23:31:49.038Z,95419.44
2023-03-27T23:34:16.634Z,95421.66
2023-03-27T23:36:44.287Z,95433.34
2023-03-27T23:39:12.076Z,95424.50
2023-03-27T23:41:41.612Z,95428.16
2023-03-27T23:44:09.192Z,95433.03
2023-03-27T23:46:36.893Z,95437.06
2023-03-27T23:49:04.503Z,95444.78
2023-03-27T23:51:32.119Z,95439.59
2023-03-27T23:53:59.689Z,95444.13
2023-03-27T23:56:27.316Z,95443.28
2023-03-27T23:58:56.355Z,95453.50
